createdAt,value
2019-01-26T00:00:11.439Z,0.20
2019-01-26T00:01:11.410Z,0.10
2019-01-26T00:02:11.398Z,0.20
2019-01-26T00:03:11.402Z,0.10
2019-01-26T00:04:11.374Z,0.20
2019-01-26T00:05:11.363Z,0.20
2019-01-26T00:06:11.422Z,0.20
2019-01-26T00:07:11.348Z,0.20
2019-01-26T00:08:11.354Z,0.20
2019-01-26T00:09:11.321Z,0.20
2019-01-26T00:10:11.307Z,0.20
2019-01-26T00:11:11.303Z,0.30
2019-01-26T00:12:11.294Z,0.20
2019-01-26T00:13:11.319Z,0.10
2019-01-26T00:14:11.307Z,0.20
2019-01-26T00:15:11.258Z,0.20
2019-01-26T00:16:11.245Z,0.20
2019-01-26T00:17:11.236Z,0.20
2019-01-26T00:18:11.226Z,0.20
2019-01-26T00:19:11.222Z,0.20
2019-01-26T00:20:11.228Z,0.20
2019-01-26T00:21:11.201Z,0.20
2019-01-26T00:22:11.186Z,0.20
2019-01-26T00:23:11.260Z,0.20
2019-01-26T00:24:11.163Z,0.20
2019-01-26T00:25:11.160Z,0.10
2019-01-26T00:26:11.144Z,0.10
2019-01-26T00:27:11.132Z,0.30
2019-01-26T00:28:11.119Z,0.20
2019-01-26T00:29:11.132Z,0.20
2019-01-26T00:30:11.100Z,0.20
2019-01-26T00:31:11.093Z,0.10
2019-01-26T00:32:11.108Z,0.20
2019-01-26T00:33:11.100Z,0.10
2019-01-26T00:34:11.060Z,0.10
2019-01-26T00:35:11.048Z,0.30
2019-01-26T00:36:11.035Z,0.20
2019-01-26T00:37:11.024Z,0.20
2019-01-26T00:38:11.048Z,0.20
2019-01-26T00:39:11.010Z,0.20
2019-01-26T00:40:11.003Z,0.10
2019-01-26T00:41:10.982Z,0.20
2019-01-26T00:42:10.997Z,0.20
2019-01-26T00:43:10.965Z,0.10
2019-01-26T00:44:10.958Z,0.10
2019-01-26T00:45:10.948Z,0.20
2019-01-26T00:46:10.935Z,0.20
2019-01-26T00:47:10.926Z,0.20
2019-01-26T00:48:10.937Z,0.20
2019-01-26T00:49:10.927Z,0.30
2019-01-26T00:50:10.892Z,0.20
2019-01-26T00:51:10.883Z,0.10
2019-01-26T00:52:10.873Z,0.20
2019-01-26T00:53:10.861Z,0.20
2019-01-26T00:54:10.847Z,0.20
2019-01-26T00:55:10.862Z,0.20
2019-01-26T00:56:10.828Z,0.20
2019-01-26T00:57:10.818Z,0.20
2019-01-26T00:58:10.805Z,0.20
2019-01-26T00:59:10.856Z,0.20
2019-01-26T01:00:10.804Z,0.20
2019-01-26T01:01:10.769Z,0.20
2019-01-26T01:02:10.769Z,0.20
2019-01-26T01:03:10.749Z,0.20
2019-01-26T01:04:10.741Z,0.20
2019-01-26T01:05:10.729Z,0.20
2019-01-26T01:06:10.752Z,0.20
2019-01-26T01:07:10.704Z,0.20
2019-01-26T01:08:10.691Z,0.10
2019-01-26T01:09:10.680Z,0.20
2019-01-26T01:10:10.701Z,0.20
2019-01-26T01:11:10.664Z,0.10
2019-01-26T01:12:10.678Z,0.20
2019-01-26T01:13:10.641Z,0.20
2019-01-26T01:14:10.631Z,0.10
2019-01-26T01:15:10.619Z,0.20
2019-01-26T01:16:10.615Z,0.20
2019-01-26T01:17:10.618Z,0.20
2019-01-26T01:18:10.604Z,0.30
2019-01-26T01:19:10.576Z,4.00
2019-01-26T01:20:10.726Z,17.80
2019-01-26T01:21:10.553Z,9.30
2019-01-26T01:22:10.565Z,5.90
2019-01-26T01:23:10.556Z,3.60
2019-01-26T01:24:10.526Z,4.00
2019-01-26T01:25:10.537Z,5.50
2019-01-26T01:26:10.517Z,14.00
2019-01-26T01:27:10.491Z,14.30
2019-01-26T01:28:10.476Z,11.10
2019-01-26T01:29:10.472Z,6.10
2019-01-26T01:30:10.466Z,13.00
2019-01-26T01:31:10.469Z,4.70
2019-01-26T01:32:10.433Z,5.70
2019-01-26T01:33:10.421Z,13.50
2019-01-26T01:34:10.414Z,7.40
2019-01-26T01:35:10.404Z,12.60
2019-01-26T01:36:10.420Z,9.50
2019-01-26T01:37:10.458Z,10.20
2019-01-26T01:38:10.372Z,10.40
2019-01-26T01:39:10.362Z,11.60
2019-01-26T01:40:10.354Z,11.70
2019-01-26T01:41:10.338Z,12.60
2019-01-26T01:42:10.377Z,8.00
2019-01-26T01:43:10.318Z,7.60
2019-01-26T01:44:10.310Z,10.10
2019-01-26T01:45:10.291Z,11.30
2019-01-26T01:46:10.283Z,5.00
2019-01-26T01:47:10.293Z,9.10
2019-01-26T01:48:10.289Z,7.50
2019-01-26T01:49:10.255Z,7.70
2019-01-26T01:50:10.268Z,19.30
2019-01-26T01:51:10.229Z,12.60
2019-01-26T01:52:10.216Z,14.10
2019-01-26T01:53:10.207Z,7.40
2019-01-26T01:54:10.197Z,9.70
2019-01-26T01:55:10.206Z,7.80
2019-01-26T01:56:10.179Z,7.90
2019-01-26T01:57:10.176Z,3.50
2019-01-26T01:58:10.157Z,10.90
2019-01-26T01:59:10.142Z,3.30
2019-01-26T02:00:10.156Z,12.20
2019-01-26T02:01:10.125Z,7.70
2019-01-26T02:02:10.112Z,11.20
2019-01-26T02:03:10.103Z,17.00
2019-01-26T02:04:10.101Z,10.50
2019-01-26T02:05:10.147Z,12.50
2019-01-26T02:06:10.092Z,9.90
2019-01-26T02:07:10.057Z,6.10
2019-01-26T02:08:10.043Z,4.80
2019-01-26T02:09:10.033Z,6.20
2019-01-26T02:10:10.065Z,13.10
2019-01-26T02:11:10.017Z,3.50
2019-01-26T02:12:10.015Z,10.80
2019-01-26T02:13:10.026Z,14.80
2019-01-26T02:14:09.986Z,10.00
2019-01-26T02:15:09.971Z,7.40
2019-01-26T02:16:10.090Z,12.70
2019-01-26T02:17:09.955Z,3.70
2019-01-26T02:18:09.941Z,7.40
2019-01-26T02:19:09.928Z,13.60
2019-01-26T02:20:09.942Z,6.00
2019-01-26T02:21:09.921Z,10.60
2019-01-26T02:22:09.903Z,4.60
2019-01-26T02:23:09.887Z,9.50
2019-01-26T02:24:09.907Z,3.20
2019-01-26T02:25:09.869Z,14.00
2019-01-26T02:26:09.854Z,8.20
2019-01-26T02:27:09.842Z,6.70
2019-01-26T02:28:09.831Z,3.60
2019-01-26T02:29:09.820Z,9.60
2019-01-26T02:30:09.836Z,4.50
2019-01-26T02:31:09.802Z,4.00
2019-01-26T02:32:09.792Z,4.90
2019-01-26T02:33:09.856Z,7.70
2019-01-26T02:34:09.768Z,3.00
2019-01-26T02:35:09.761Z,4.00
2019-01-26T02:36:09.766Z,3.90
2019-01-26T02:37:09.740Z,10.60
2019-01-26T02:38:09.724Z,7.60
2019-01-26T02:39:09.766Z,10.00
2019-01-26T02:40:09.699Z,1.60
2019-01-26T02:41:09.707Z,8.50
2019-01-26T02:42:09.682Z,7.30
2019-01-26T02:43:09.671Z,12.80
2019-01-26T02:44:09.664Z,7.50
2019-01-26T02:45:09.655Z,6.10
2019-01-26T02:46:09.676Z,6.60
2019-01-26T02:47:09.629Z,5.80
2019-01-26T02:48:09.615Z,8.10
2019-01-26T02:49:09.612Z,2.00
2019-01-26T02:50:09.622Z,6.30
2019-01-26T02:51:09.586Z,12.90
2019-01-26T02:52:09.590Z,3.90
2019-01-26T02:53:09.569Z,7.40
2019-01-26T02:54:09.551Z,5.80
2019-01-26T02:55:09.541Z,10.10
2019-01-26T02:56:09.566Z,2.50
2019-01-26T02:57:09.547Z,8.90
2019-01-26T02:58:09.509Z,19.80
2019-01-26T02:59:09.498Z,12.90
2019-01-26T03:00:09.485Z,19.00
2019-01-26T03:01:09.474Z,4.90
2019-01-26T03:02:09.483Z,11.40
2019-01-26T03:03:09.483Z,2.80
2019-01-26T03:04:09.446Z,16.70
2019-01-26T03:05:09.433Z,9.40
2019-01-26T03:06:09.421Z,12.60
2019-01-26T03:07:09.437Z,7.30
2019-01-26T03:08:09.406Z,5.60
2019-01-26T03:09:09.411Z,14.70
2019-01-26T03:10:09.418Z,16.80
2019-01-26T03:11:09.369Z,17.20
2019-01-26T03:12:09.353Z,23.80
2019-01-26T03:13:09.349Z,15.90
2019-01-26T03:14:09.358Z,7.80
2019-01-26T03:15:09.326Z,21.20
2019-01-26T03:16:09.318Z,13.30
2019-01-26T03:17:09.306Z,10.50
2019-01-26T03:18:09.306Z,16.50
2019-01-26T03:19:09.281Z,13.50
2019-01-26T03:20:09.285Z,11.30
2019-01-26T03:21:09.270Z,17.10
2019-01-26T03:22:09.267Z,4.30
2019-01-26T03:23:09.237Z,6.10
2019-01-26T03:24:09.245Z,13.70
2019-01-26T03:25:09.219Z,11.50
2019-01-26T03:26:09.207Z,5.30
2019-01-26T03:27:09.216Z,8.80
2019-01-26T03:28:09.201Z,19.50
2019-01-26T03:29:09.178Z,22.80
2019-01-26T03:30:09.169Z,16.80
2019-01-26T03:31:09.182Z,10.30
2019-01-26T03:32:09.145Z,2.80
2019-01-26T03:33:09.132Z,3.80
2019-01-26T03:34:09.119Z,7.90
2019-01-26T03:35:09.112Z,9.00
2019-01-26T03:36:09.103Z,16.00
2019-01-26T03:37:09.104Z,14.90
2019-01-26T03:38:09.077Z,18.80
2019-01-26T03:39:09.091Z,20.50
2019-01-26T03:40:09.060Z,12.70
2019-01-26T03:41:09.051Z,13.80
2019-01-26T03:42:09.092Z,13.60
2019-01-26T03:43:09.044Z,12.50
2019-01-26T03:44:09.027Z,12.50
2019-01-26T03:45:09.001Z,16.90
2019-01-26T03:46:08.991Z,3.70
2019-01-26T03:47:13.630Z,8.40
2019-01-26T03:48:08.976Z,11.90
2019-01-26T03:49:08.967Z,15.50
2019-01-26T03:50:08.954Z,9.80
2019-01-26T03:51:08.971Z,9.70
2019-01-26T03:52:08.926Z,11.90
2019-01-26T03:53:08.958Z,11.60
2019-01-26T03:54:08.911Z,11.50
2019-01-26T03:55:08.898Z,16.70
2019-01-26T03:56:08.883Z,8.80
2019-01-26T03:57:08.893Z,16.60
2019-01-26T03:58:08.913Z,17.70
2019-01-26T03:59:08.863Z,5.90
2019-01-26T04:00:08.851Z,4.40
2019-01-26T04:01:08.839Z,11.60
2019-01-26T04:02:08.827Z,11.90
2019-01-26T04:03:08.831Z,2.90
2019-01-26T04:04:08.806Z,6.30
2019-01-26T04:05:08.812Z,21.10
2019-01-26T04:06:08.778Z,21.90
2019-01-26T04:07:08.774Z,13.40
2019-01-26T04:08:08.774Z,19.20
2019-01-26T04:09:08.824Z,10.60
2019-01-26T04:10:08.775Z,15.30
2019-01-26T04:11:08.732Z,10.10
2019-01-26T04:12:08.717Z,18.60
2019-01-26T04:13:08.726Z,9.30
2019-01-26T04:14:08.703Z,8.30
2019-01-26T04:15:08.684Z,12.90
2019-01-26T04:16:08.672Z,12.80
2019-01-26T04:17:08.665Z,13.40
2019-01-26T04:18:08.681Z,16.60
2019-01-26T04:19:08.692Z,11.80
2019-01-26T04:20:08.633Z,9.00
2019-01-26T04:21:08.624Z,5.80
2019-01-26T04:22:08.613Z,8.40
2019-01-26T04:23:08.613Z,23.30
2019-01-26T04:24:08.590Z,19.60
2019-01-26T04:25:08.609Z,6.90
2019-01-26T04:26:08.591Z,28.90
2019-01-26T04:27:08.553Z,14.10
2019-01-26T04:28:08.544Z,15.20
2019-01-26T04:29:08.555Z,20.00
2019-01-26T04:30:08.541Z,16.20
2019-01-26T04:31:08.519Z,13.60
2019-01-26T04:32:08.507Z,18.10
2019-01-26T04:33:08.495Z,20.20
2019-01-26T04:34:08.506Z,3.30
2019-01-26T04:35:08.468Z,10.90
2019-01-26T04:36:08.462Z,8.60
2019-01-26T04:37:08.449Z,17.00
2019-01-26T04:38:08.446Z,21.90
2019-01-26T04:39:08.452Z,11.30
2019-01-26T04:40:08.420Z,19.20
2019-01-26T04:41:08.408Z,8.10
2019-01-26T04:42:08.415Z,6.00
2019-01-26T04:43:08.393Z,5.30
2019-01-26T04:44:08.384Z,16.40
2019-01-26T04:45:08.368Z,9.30
2019-01-26T04:46:08.367Z,21.30
2019-01-26T04:47:08.368Z,11.60
2019-01-26T04:48:08.332Z,18.60
2019-01-26T04:49:08.340Z,17.90
2019-01-26T04:50:08.354Z,19.80
2019-01-26T04:51:08.385Z,18.70
2019-01-26T04:52:08.300Z,13.40
2019-01-26T04:53:08.313Z,12.60
2019-01-26T04:54:08.292Z,18.30
2019-01-26T04:55:08.293Z,14.30
2019-01-26T04:56:08.250Z,17.40
2019-01-26T04:57:08.241Z,26.60
2019-01-26T04:58:08.247Z,12.80
2019-01-26T04:59:08.238Z,13.00
2019-01-26T05:00:08.227Z,5.60
2019-01-26T05:01:08.197Z,15.20
2019-01-26T05:02:08.186Z,18.00
2019-01-26T05:03:08.183Z,15.50
2019-01-26T05:04:08.191Z,10.50
2019-01-26T05:05:08.155Z,11.50
2019-01-26T05:06:08.178Z,9.90
2019-01-26T05:07:08.127Z,18.90
2019-01-26T05:08:08.133Z,23.50
2019-01-26T05:09:08.113Z,24.50
2019-01-26T05:10:08.117Z,17.60
2019-01-26T05:11:08.100Z,11.30
2019-01-26T05:12:08.083Z,9.90
2019-01-26T05:13:08.066Z,16.90
2019-01-26T05:14:08.056Z,14.40
2019-01-26T05:15:08.071Z,11.60
2019-01-26T05:16:08.060Z,4.30
2019-01-26T05:17:08.027Z,21.40
2019-01-26T05:18:08.018Z,22.30
2019-01-26T05:19:08.007Z,13.80
2019-01-26T05:20:07.995Z,20.80
2019-01-26T05:21:08.005Z,15.00
2019-01-26T05:22:07.968Z,23.50
2019-01-26T05:23:07.966Z,10.70
2019-01-26T05:24:07.965Z,18.60
2019-01-26T05:25:07.957Z,16.50
2019-01-26T05:26:07.960Z,25.60
2019-01-26T05:27:07.915Z,15.00
2019-01-26T05:28:07.907Z,28.50
2019-01-26T05:29:07.919Z,22.50
2019-01-26T05:30:07.901Z,17.10
2019-01-26T05:31:07.888Z,16.60
2019-01-26T05:32:07.899Z,14.40
2019-01-26T05:33:07.854Z,31.10
2019-01-26T05:34:07.841Z,10.10
2019-01-26T05:35:07.893Z,4.90
2019-01-26T05:36:07.850Z,18.90
2019-01-26T05:37:07.815Z,34.80
2019-01-26T05:38:07.806Z,15.90
2019-01-26T05:39:07.796Z,14.00
2019-01-26T05:40:07.780Z,9.60
2019-01-26T05:41:07.821Z,12.80
2019-01-26T05:42:07.820Z,9.60
2019-01-26T05:43:07.770Z,28.40
2019-01-26T05:44:07.742Z,6.60
2019-01-26T05:45:07.726Z,7.40
2019-01-26T05:46:07.713Z,9.40
2019-01-26T05:47:07.710Z,16.60
2019-01-26T05:48:07.733Z,29.20
2019-01-26T05:49:07.686Z,18.50
2019-01-26T05:50:07.685Z,14.70
2019-01-26T05:51:07.660Z,14.50
2019-01-26T05:52:07.652Z,15.90
2019-01-26T05:53:07.667Z,8.70
2019-01-26T05:54:07.636Z,24.30
2019-01-26T05:55:07.624Z,18.10
2019-01-26T05:56:07.611Z,20.80
2019-01-26T05:57:07.610Z,5.90
2019-01-26T05:58:07.610Z,24.80
2019-01-26T05:59:07.605Z,13.60
2019-01-26T06:00:07.568Z,20.80
2019-01-26T06:01:07.605Z,18.10
2019-01-26T06:02:07.551Z,24.60
2019-01-26T06:03:07.608Z,10.20
2019-01-26T06:04:07.537Z,9.40
2019-01-26T06:05:07.534Z,27.30
2019-01-26T06:06:07.523Z,4.20
2019-01-26T06:07:07.497Z,21.20
2019-01-26T06:08:07.484Z,18.70
2019-01-26T06:09:07.492Z,7.20
2019-01-26T06:10:07.466Z,11.30
2019-01-26T06:11:07.467Z,9.10
2019-01-26T06:12:07.462Z,7.40
2019-01-26T06:13:07.447Z,8.50
2019-01-26T06:14:07.442Z,13.60
2019-01-26T06:15:07.415Z,14.20
2019-01-26T06:16:07.421Z,19.20
2019-01-26T06:17:07.387Z,10.30
2019-01-26T06:18:07.375Z,26.50
2019-01-26T06:19:07.375Z,21.80
2019-01-26T06:20:07.357Z,17.60
2019-01-26T06:21:07.389Z,15.90
2019-01-26T06:22:07.337Z,8.60
2019-01-26T06:23:07.384Z,6.30
2019-01-26T06:24:07.418Z,11.60
2019-01-26T06:25:07.436Z,12.30
2019-01-26T06:26:07.288Z,13.20
2019-01-26T06:27:07.316Z,18.70
2019-01-26T06:28:07.271Z,19.30
2019-01-26T06:29:07.263Z,16.50
2019-01-26T06:30:07.288Z,10.50
2019-01-26T06:31:07.235Z,17.80
2019-01-26T06:32:07.250Z,4.10
2019-01-26T06:33:07.218Z,21.70
2019-01-26T06:34:07.212Z,26.50
2019-01-26T06:35:07.197Z,20.20
2019-01-26T06:36:07.198Z,18.50
2019-01-26T06:37:07.173Z,14.30
2019-01-26T06:38:07.210Z,18.40
2019-01-26T06:39:07.157Z,16.60
2019-01-26T06:40:07.147Z,9.90
2019-01-26T06:41:07.141Z,19.70
2019-01-26T06:42:07.145Z,14.80
2019-01-26T06:43:07.107Z,20.60
2019-01-26T06:44:07.098Z,19.90
2019-01-26T06:45:07.089Z,15.90
2019-01-26T06:46:07.074Z,13.80
2019-01-26T06:47:07.088Z,16.30
2019-01-26T06:48:07.079Z,14.10
2019-01-26T06:49:07.047Z,9.20
2019-01-26T06:50:07.062Z,6.30
2019-01-26T06:51:07.027Z,14.40
2019-01-26T06:52:07.036Z,26.80
2019-01-26T06:53:07.021Z,18.90
2019-01-26T06:54:07.018Z,14.40
2019-01-26T06:55:06.982Z,12.80
2019-01-26T06:56:07.002Z,7.00
2019-01-26T06:57:06.964Z,15.50
2019-01-26T06:58:06.982Z,17.30
2019-01-26T06:59:06.943Z,14.40
2019-01-26T07:00:06.950Z,13.50
2019-01-26T07:01:06.918Z,20.50
2019-01-26T07:02:06.911Z,29.90
2019-01-26T07:03:06.894Z,12.90
2019-01-26T07:04:06.885Z,16.30
2019-01-26T07:05:06.903Z,16.30
2019-01-26T07:06:06.870Z,17.60
2019-01-26T07:07:06.854Z,29.90
2019-01-26T07:08:06.842Z,26.40
2019-01-26T07:09:06.863Z,20.30
2019-01-26T07:10:06.820Z,13.90
2019-01-26T07:11:06.834Z,18.20
2019-01-26T07:12:06.806Z,15.80
2019-01-26T07:13:06.815Z,10.00
2019-01-26T07:14:06.782Z,13.90
2019-01-26T07:15:06.767Z,8.20
2019-01-26T07:16:06.778Z,33.40
2019-01-26T07:17:06.749Z,15.90
2019-01-26T07:18:09.554Z,7.30
2019-01-26T07:19:06.729Z,16.10
2019-01-26T07:20:06.721Z,10.20
2019-01-26T07:21:06.707Z,5.60
2019-01-26T07:22:06.692Z,5.80
2019-01-26T07:23:06.689Z,25.10
2019-01-26T07:24:06.690Z,17.90
2019-01-26T07:25:06.668Z,9.00
2019-01-26T07:26:06.666Z,39.10
2019-01-26T07:27:06.654Z,49.70
2019-01-26T07:28:06.634Z,60.00
2019-01-26T07:29:06.619Z,62.90
2019-01-26T07:30:06.614Z,67.20
2019-01-26T07:31:06.753Z,65.80
2019-01-26T07:32:06.632Z,66.00
2019-01-26T07:33:06.578Z,65.10
2019-01-26T07:34:06.570Z,68.10
2019-01-26T07:35:06.554Z,67.10
2019-01-26T07:36:06.543Z,67.30
2019-01-26T07:37:06.556Z,68.50
2019-01-26T07:38:13.336Z,66.00
2019-01-26T07:39:07.528Z,68.80
2019-01-26T07:40:06.501Z,70.70
2019-01-26T07:41:06.495Z,68.50
2019-01-26T07:42:06.476Z,67.40
2019-01-26T07:43:06.481Z,66.20
2019-01-26T07:44:06.482Z,63.00
2019-01-26T07:45:06.464Z,66.10
2019-01-26T07:46:06.441Z,67.20
2019-01-26T07:47:06.424Z,62.40
2019-01-26T07:48:06.420Z,64.70
2019-01-26T07:49:06.408Z,65.50
2019-01-26T07:50:06.427Z,63.00
2019-01-26T07:51:06.439Z,62.60
2019-01-26T07:52:06.378Z,62.00
2019-01-26T07:53:06.366Z,61.30
2019-01-26T07:54:06.366Z,61.20
2019-01-26T07:55:06.344Z,62.30
2019-01-26T07:56:06.331Z,64.00
2019-01-26T07:57:06.324Z,60.80
2019-01-26T07:58:06.324Z,59.50
2019-01-26T07:59:06.326Z,62.00
2019-01-26T08:00:06.286Z,60.10
2019-01-26T08:01:06.277Z,60.60
2019-01-26T08:02:06.278Z,63.20
2019-01-26T08:03:06.260Z,58.80
2019-01-26T08:04:06.278Z,58.90
2019-01-26T08:05:06.254Z,59.80
2019-01-26T08:06:06.228Z,59.50
2019-01-26T08:07:06.212Z,59.60
2019-01-26T08:08:06.236Z,59.30
2019-01-26T08:09:06.194Z,57.40
2019-01-26T08:10:06.210Z,58.00
2019-01-26T08:11:06.173Z,57.80
2019-01-26T08:12:06.165Z,60.00
2019-01-26T08:13:06.206Z,57.10
2019-01-26T08:14:06.149Z,56.20
2019-01-26T08:15:06.143Z,60.20
2019-01-26T08:16:06.139Z,57.80
2019-01-26T08:17:06.108Z,55.30
2019-01-26T08:18:06.103Z,55.20
2019-01-26T08:19:06.084Z,54.30
2019-01-26T08:20:06.073Z,56.60
2019-01-26T08:21:06.099Z,55.80
2019-01-26T08:22:06.071Z,54.30
2019-01-26T08:23:06.049Z,54.30
2019-01-26T08:24:06.055Z,53.80
2019-01-26T08:25:06.017Z,55.90
2019-01-26T08:26:06.026Z,57.00
2019-01-26T08:27:05.999Z,56.70
2019-01-26T08:28:06.007Z,56.40
2019-01-26T08:29:05.980Z,55.00
2019-01-26T08:30:05.972Z,53.60
2019-01-26T08:31:05.954Z,56.30
2019-01-26T08:32:05.949Z,35.90
2019-01-26T08:33:05.975Z,12.70
2019-01-26T08:34:05.925Z,11.80
2019-01-26T08:35:05.914Z,21.30
2019-01-26T08:36:05.904Z,17.90
2019-01-26T08:37:05.898Z,17.50
2019-01-26T08:38:05.903Z,18.20
2019-01-26T08:39:05.867Z,17.90
2019-01-26T08:40:05.855Z,16.10
2019-01-26T08:41:05.849Z,10.60
2019-01-26T08:42:05.855Z,8.10
2019-01-26T08:43:05.845Z,15.70
2019-01-26T08:44:05.817Z,14.60
2019-01-26T08:45:05.810Z,10.70
2019-01-26T08:46:05.797Z,16.00
2019-01-26T08:47:05.820Z,16.60
2019-01-26T08:48:05.778Z,9.60
2019-01-26T08:49:05.763Z,15.60
2019-01-26T08:50:05.751Z,10.40
2019-01-26T08:51:05.753Z,10.70
2019-01-26T08:52:05.744Z,30.20
2019-01-26T08:53:05.715Z,34.70
2019-01-26T08:54:05.713Z,33.40
2019-01-26T08:55:05.740Z,34.10
2019-01-26T08:56:05.693Z,31.80
2019-01-26T08:57:05.706Z,32.00
2019-01-26T08:58:05.703Z,30.60
2019-01-26T08:59:05.656Z,30.60
2019-01-26T09:00:05.653Z,30.60
2019-01-26T09:01:05.645Z,29.20
2019-01-26T09:02:05.642Z,30.00
2019-01-26T09:03:05.612Z,30.60
2019-01-26T09:04:05.603Z,28.30
2019-01-26T09:05:05.587Z,26.90
2019-01-26T09:06:05.584Z,26.80
2019-01-26T09:07:05.593Z,27.40
2019-01-26T09:08:05.560Z,28.10
2019-01-26T09:09:05.552Z,27.00
2019-01-26T09:10:05.535Z,28.20
2019-01-26T09:11:05.526Z,28.60
2019-01-26T09:12:05.539Z,27.10
2019-01-26T09:13:05.524Z,27.10
2019-01-26T09:14:05.495Z,27.30
2019-01-26T09:15:05.493Z,26.10
2019-01-26T09:16:05.469Z,28.40
2019-01-26T09:17:05.460Z,26.60
2019-01-26T09:18:05.465Z,29.00
2019-01-26T09:19:05.439Z,27.90
2019-01-26T09:20:05.432Z,26.30
2019-01-26T09:21:05.453Z,26.60
2019-01-26T09:22:05.406Z,28.40
2019-01-26T09:23:05.420Z,28.00
2019-01-26T09:24:05.380Z,26.50
2019-01-26T09:25:05.378Z,26.50
2019-01-26T09:26:05.361Z,28.50
2019-01-26T09:27:05.360Z,26.80
2019-01-26T09:28:05.344Z,25.80
2019-01-26T09:29:05.348Z,25.50
2019-01-26T09:30:05.347Z,27.50
2019-01-26T09:31:05.311Z,25.30
2019-01-26T09:32:05.306Z,27.30
2019-01-26T09:33:05.308Z,26.00
2019-01-26T09:34:05.288Z,25.40
2019-01-26T09:35:05.265Z,27.30
2019-01-26T09:36:05.253Z,27.10
2019-01-26T09:37:05.240Z,28.60
2019-01-26T09:38:05.277Z,28.90
2019-01-26T09:39:05.226Z,31.40
2019-01-26T09:40:05.215Z,31.10
2019-01-26T09:41:05.204Z,32.60
2019-01-26T09:42:05.191Z,34.20
2019-01-26T09:43:05.198Z,36.20
2019-01-26T09:44:05.167Z,39.70
2019-01-26T09:45:05.180Z,38.20
2019-01-26T09:46:05.150Z,38.50
2019-01-26T09:47:05.139Z,39.80
2019-01-26T09:48:05.126Z,41.40
2019-01-26T09:49:05.131Z,43.90
2019-01-26T09:50:05.140Z,43.80
2019-01-26T09:51:05.106Z,43.10
2019-01-26T09:52:05.087Z,44.60
2019-01-26T09:53:05.136Z,41.50
2019-01-26T09:54:05.064Z,42.10
2019-01-26T09:55:05.049Z,41.20
2019-01-26T09:56:05.065Z,45.60
2019-01-26T09:57:05.029Z,43.20
2019-01-26T09:58:05.018Z,42.60
2019-01-26T09:59:05.009Z,43.00
2019-01-26T10:00:05.000Z,43.20
2019-01-26T10:01:04.987Z,41.30
2019-01-26T10:02:04.997Z,42.10
2019-01-26T10:03:04.999Z,23.70
2019-01-26T10:04:04.959Z,19.40
2019-01-26T10:05:04.946Z,35.70
2019-01-26T10:06:04.937Z,43.20
2019-01-26T10:07:04.920Z,40.60
2019-01-26T10:08:04.918Z,42.90
2019-01-26T10:09:04.917Z,40.10
2019-01-26T10:10:04.890Z,40.30
2019-01-26T10:11:04.880Z,41.40
2019-01-26T10:12:04.898Z,38.00
2019-01-26T10:13:04.865Z,40.30
2019-01-26T10:14:04.848Z,37.80
2019-01-26T10:15:04.841Z,37.80
2019-01-26T10:16:04.822Z,39.00
2019-01-26T10:17:04.826Z,39.20
2019-01-26T10:18:04.833Z,38.00
2019-01-26T10:19:04.797Z,40.50
2019-01-26T10:20:04.795Z,38.60
2019-01-26T10:21:04.773Z,37.50
2019-01-26T10:22:04.804Z,39.50
2019-01-26T10:23:04.768Z,38.40
2019-01-26T10:24:04.766Z,36.30
2019-01-26T10:25:04.731Z,36.70
2019-01-26T10:26:04.724Z,38.50
2019-01-26T10:27:04.706Z,38.30
2019-01-26T10:28:04.698Z,37.40
2019-01-26T10:29:04.697Z,40.20
2019-01-26T10:30:04.671Z,36.70
2019-01-26T10:31:04.667Z,38.70
2019-01-26T10:32:04.658Z,37.60
2019-01-26T10:33:04.639Z,36.00
2019-01-26T10:34:04.687Z,38.00
2019-01-26T10:35:04.632Z,38.30
2019-01-26T10:36:04.613Z,38.90
2019-01-26T10:37:04.602Z,38.70
2019-01-26T10:38:04.592Z,39.00
2019-01-26T10:39:04.605Z,40.10
2019-01-26T10:40:04.584Z,39.10
2019-01-26T10:41:04.556Z,38.80
2019-01-26T10:42:04.547Z,38.30
2019-01-26T10:43:04.577Z,38.70
2019-01-26T10:44:04.625Z,37.90
2019-01-26T10:45:04.988Z,37.30
2019-01-26T10:46:04.605Z,36.50
2019-01-26T10:47:04.530Z,37.30
2019-01-26T10:48:04.543Z,39.50
2019-01-26T10:49:05.184Z,40.30
2019-01-26T10:50:04.480Z,38.80
2019-01-26T10:51:05.187Z,36.80
2019-01-26T10:52:04.451Z,33.20
2019-01-26T10:53:04.428Z,35.70
2019-01-26T10:54:05.199Z,36.00
2019-01-26T10:55:04.437Z,38.40
2019-01-26T10:56:05.023Z,37.00
2019-01-26T10:57:05.252Z,38.10
2019-01-26T10:58:05.182Z,36.80
2019-01-26T10:59:04.362Z,37.80
2019-01-26T11:00:04.378Z,37.20
2019-01-26T11:01:04.421Z,37.40
2019-01-26T11:02:04.332Z,37.10
2019-01-26T11:03:04.330Z,37.00
2019-01-26T11:04:04.319Z,36.10
2019-01-26T11:05:04.294Z,39.40
2019-01-26T11:06:04.306Z,37.30
2019-01-26T11:07:04.280Z,38.50
2019-01-26T11:08:04.288Z,35.30
2019-01-26T11:09:04.265Z,37.60
2019-01-26T11:10:04.245Z,39.70
2019-01-26T11:11:04.249Z,36.80
2019-01-26T11:12:04.227Z,34.00
2019-01-26T11:13:04.248Z,35.50
2019-01-26T11:14:04.199Z,36.60
2019-01-26T11:15:04.219Z,35.40
2019-01-26T11:16:04.184Z,35.90
2019-01-26T11:17:04.198Z,35.00
2019-01-26T11:18:04.166Z,36.50
2019-01-26T11:19:07.997Z,34.60
2019-01-26T11:20:04.138Z,33.20
2019-01-26T11:21:04.133Z,33.00
2019-01-26T11:22:04.628Z,32.70
2019-01-26T11:23:04.123Z,33.10
2019-01-26T11:24:04.104Z,33.20
2019-01-26T11:25:04.077Z,33.60
2019-01-26T11:26:04.071Z,32.90
2019-01-26T11:27:04.062Z,33.60
2019-01-26T11:28:04.075Z,35.00
2019-01-26T11:29:04.046Z,33.20
2019-01-26T11:30:04.030Z,33.40
2019-01-26T11:31:04.038Z,31.60
2019-01-26T11:32:04.004Z,32.80
2019-01-26T11:33:04.013Z,33.00
2019-01-26T11:34:03.985Z,32.90
2019-01-26T11:35:03.976Z,31.70
2019-01-26T11:36:03.992Z,31.20
2019-01-26T11:37:03.950Z,33.10
2019-01-26T11:38:03.978Z,33.30
2019-01-26T11:39:03.937Z,32.70
2019-01-26T11:40:03.926Z,34.30
2019-01-26T11:41:03.922Z,33.40
2019-01-26T11:42:03.926Z,34.80
2019-01-26T11:43:03.927Z,34.60
2019-01-26T11:44:03.876Z,35.20
2019-01-26T11:45:03.864Z,35.00
2019-01-26T11:46:03.857Z,35.40
2019-01-26T11:47:03.848Z,34.60
2019-01-26T11:48:03.859Z,34.80
2019-01-26T11:49:03.829Z,36.20
2019-01-26T11:50:03.846Z,34.60
2019-01-26T11:51:03.819Z,35.60
2019-01-26T11:52:03.805Z,35.00
2019-01-26T11:53:03.813Z,35.50
2019-01-26T11:54:03.774Z,36.40
2019-01-26T11:55:03.804Z,35.30
2019-01-26T11:56:03.795Z,37.20
2019-01-26T11:57:03.737Z,33.50
2019-01-26T11:58:03.735Z,32.30
2019-01-26T11:59:03.743Z,33.20
2019-01-26T12:00:03.770Z,33.70
2019-01-26T12:01:03.707Z,31.60
2019-01-26T12:02:03.718Z,32.00
2019-01-26T12:03:03.993Z,32.70
2019-01-26T12:04:03.705Z,30.50
2019-01-26T12:05:03.691Z,31.70
2019-01-26T12:06:03.651Z,30.50
2019-01-26T12:07:03.658Z,30.80
2019-01-26T12:08:03.646Z,31.50
2019-01-26T12:09:03.665Z,29.40
2019-01-26T12:10:03.678Z,30.90
2019-01-26T12:11:03.591Z,30.10
2019-01-26T12:12:03.627Z,29.00
2019-01-26T12:13:03.571Z,26.10
2019-01-26T12:14:03.558Z,27.30
2019-01-26T12:15:03.559Z,26.80
2019-01-26T12:16:03.532Z,26.70
2019-01-26T12:17:03.519Z,26.00
2019-01-26T12:18:03.544Z,26.70
2019-01-26T12:19:03.504Z,25.20
2019-01-26T12:20:03.495Z,24.40
2019-01-26T12:21:03.538Z,24.90
2019-01-26T12:22:03.471Z,24.80
2019-01-26T12:23:03.458Z,25.10
2019-01-26T12:24:03.474Z,25.00
2019-01-26T12:25:03.445Z,24.90
2019-01-26T12:26:03.433Z,26.00
2019-01-26T12:27:03.416Z,24.20
2019-01-26T12:28:03.460Z,25.80
2019-01-26T12:29:03.403Z,27.10
2019-01-26T12:30:03.409Z,25.50
2019-01-26T12:31:03.375Z,26.10
2019-01-26T12:32:03.368Z,26.60
2019-01-26T12:33:03.369Z,26.90
2019-01-26T12:34:03.365Z,26.30
2019-01-26T12:35:03.329Z,27.10
2019-01-26T12:36:03.336Z,24.90
2019-01-26T12:37:03.307Z,26.10
2019-01-26T12:38:03.307Z,23.60
2019-01-26T12:39:03.312Z,24.70
2019-01-26T12:40:03.279Z,24.40
2019-01-26T12:41:03.267Z,24.40
2019-01-26T12:42:03.252Z,24.40
2019-01-26T12:43:03.252Z,23.00
2019-01-26T12:44:03.280Z,23.10
2019-01-26T12:45:03.960Z,22.80
2019-01-26T12:46:03.255Z,22.60
2019-01-26T12:47:03.215Z,21.80
2019-01-26T12:48:03.190Z,20.70
2019-01-26T12:49:03.201Z,20.80
2019-01-26T12:50:03.172Z,21.40
2019-01-26T12:51:03.165Z,21.00
2019-01-26T12:52:03.151Z,20.30
2019-01-26T12:53:03.900Z,20.30
2019-01-26T12:54:03.162Z,20.00
2019-01-26T12:55:03.130Z,19.50
2019-01-26T12:56:03.104Z,19.30
2019-01-26T12:57:03.098Z,19.10
2019-01-26T12:58:03.093Z,17.80
2019-01-26T12:59:03.095Z,19.00